Airfield :
LOGIN :

Register | Disclaimer

   EN    FR    IT 

 










Legend :    VFR   Marginal VFR   IFR   Intensive IFR   Very Intensive IFR
Visi :
Ceiling :
>= 8 km
>= 3000ft
5 to 8 km
1000 to 3000 ft
1500m to 5 km
500 to 1000 ft
800 to 1500m
200 to 500 ft
< 800m
< 200 ft
Symbols :   Thunderstorms  Fog  Heavy snow  Heavy precipitations  Wind > 20 kt
SIGMETs :     Misc.  Thunderstorms  Icing  Turbulence  Mountain Waves  Volcanic Ashes







- Airport Elevation : 74 ft
- IATA code : MRS
- Download approach charts


LFML - Marseille / Marignane

CURRENT METAR :
  • 181530Z AUTO 23013KT 9999 BKN039 13/06 Q1019 NOSIG

EXPIRED METARs :
  • 181500Z AUTO 26010KT 9999 FEW041 13/06 Q1019 NOSIG
  • 181430Z AUTO 26010KT CAVOK 13/06 Q1019 NOSIG
  • 181400Z AUTO 27011KT 9999 FEW033 13/05 Q1019 NOSIG
  • 181330Z AUTO 27009KT 9999 FEW032 13/06 Q1019 NOSIG
  • 181300Z AUTO 28008KT CAVOK 13/05 Q1020 NOSIG

TAF AMD TAF LFML
Valid from the 18 at 15:00 until the 19 at 21:00 UTC


181533Z 1815/1921 23012KT CAVOK
TEMPO 1815/1818 SCT030
BECMG 1819/1821 VRB03KT
PROB30
TEMPO 1905/1908 2000 BR BKN005
TEMPO 1908/1910 BKN012
BECMG 1908/1910 32010KT
TEMPO 1913/1915 33018G28KT TX13/1913Z TN04/1905Z
ATIS : +33 4 42 31 15 15
No reported NOTAMs for that airfield.
4 SIGMETs reported for the Marseille FIR (LFMM) :
 
Severe mountain waves
LFMM SIGMET 15 VALID 181500/181800 LFPW
LFMM MARSEILLE FIR/UIR SEV MTW FCST E OF LINE N4115 E00900 - N4330 E00830 SFC/FL350 STNR NC=
Severe mountain waves
LFMM SIGMET 14 VALID 181500/181800 LFPW
LFMM MARSEILLE FIR/UIR SEV MTW FCST WI N4530 E00700 - N4400 E00700 - N4400 E00730 - N4330 E00630 - N4500 E00615 - N4530 E00700 SFC/FL300 STNR NC=
Severe turbulence
LFMM SIGMET 13 VALID 181300/181700 LFPW
LFMM MARSEILLE FIR/UIR SEV TURB FCST WI N4500 E00245 - N4630 E00300 - N4630 E00415 - N4530 E00400 - N4500 E00245 SFC/FL080 STNR WKN=
Severe turbulence
LFMM SIGMET 12 VALID 181300/181700 LFPW
LFMM MARSEILLE FIR/UIR SEV TURB FCST WI N4400 E00700 - N4315 E00945 - N4115 E00945 - N4115 E00845 - N4300 E00530 - N4400 E00700 SFC/FL060 STNR NC=



MET'MAP, your aeronautical weather chart ! - Copyright ORBIFLY December 2007 - Disclaimer

ORBIFLY MET'MAP TEAM :

Programming & Development : Alexandra Zaïnal
Concept & Development : Baudouin d'Aumeries
Co-Development & Prog : Marc-Olivier Méhu
Technical & hardware support : Manuel Goepfert

Contact : metmap@orbifly.com




SOURCES & CREDITS :

   NOAA